Cabot Strait: Past 24 Hour Conditions

 

Port aux Basques

12:30 PM NST 22 November 2014
This table is a summary of hourly weather conditions for the past 24 hours.
Date / Time
(NST)
Wind(knots) Conditions Visibility(km) Pressure(kPa) Air tempC) Relative humidity(%) Dew pointC) Wind Chill
22 November 2014
12:30 WNW 22 gust 31 Light Snow 0.6 101.2 -4 88 -5 -12
11:30 WNW 26 gust 34 Light Snow 15 101.2 -2 58 -9 -11
10:30 NW 26 gust 42 Partly Cloudy 15 101.2 -2 57 -9 -11
9:30 WNW 24 gust 34 Mainly Sunny 15 101.1 -2 56 -10 -10
8:30 NW 24 gust 35 Sunny 15 101.1 -3 51 -11 -11
7:30 NW 29 gust 37 Clear 15 101.0 -3 51 -12 -12
6:30 NW 24 gust 30 Mainly Clear 15 100.9 -3 55 -11 -12
5:30 NW 24 gust 36 Clear 15 100.9 -3 52 -12 -12
4:30 NW 30 gust 37 Clear 15 100.8 -3 52 -11 -13
3:30 NW 27 gust 32 Clear 15 100.7 -3 55 -11 -12
2:30 WNW 30 gust 38 Clear 15 100.6 -3 49 -12 -12
1:30 NW 25 gust 31 Light Snow 15 100.5 -3 71 -8 -12
0:30 NW 18 gust 26 Clear 15 100.5 -3 59 -9 -10
21 November 2014
23:30 N/A Light Snow 2 100.4 -3 87 -5 *
22:30 WNW 22 gust 27 Mainly Clear 15 100.3 -1 71 -6 -9
21:30 WNW 22 gust 30 Mainly Clear 15 100.3 -1 66 -7 -9
20:30 WNW 26 gust 33 Mainly Clear 15 100.3 -1 67 -6 -9
19:30 WNW 28 gust 35 Mainly Clear 15 100.2 -1 74 -5 -9
18:30 WNW 28 gust 43 Mainly Clear 15 100.2 -2 81 -5 -11
17:30 WNW 32 gust 42 Light Snow 0.5 100.1 -3 93 -4 -12
16:30 W 29 gust 35 Mainly Sunny 15 100.1 -1 79 -4 -10
15:30 WNW 27 gust 37 Light Snow 3 100.0 -2 86 -4 -11
14:30 W 21 gust 34 Light Snow 6 100.0 -1 83 -3 -8
13:30 W 31 gust 39 Mainly Sunny 15 100.0 1 62 -6 *
12:30 WSW 33 gust 40 Mainly Sunny 15 100.1 2 61 -5 *
 
Map of Atlantic - Newfoundland marine weather areas Southwestern Grand Banks - 44138 Banquereau - 44139 Tail of the Bank - 44140 Nickerson Bank - 44251 Northeast Burgeo Bank - 44255 Blanc-Sablon Airport Cap Whittle Chevery Natashquan Airport Heath Point Miscou Island Grand Étang Ingonish Beach North Mountain St.Paul Island J.A. Douglas McCurdy Sydney Airport Charlottetown Airport East Point North Cape Argentia Bonavista Burgeo Cape Race Corner Brook Daniel's Harbour Englee Ferolle Point La Scie Port aux Basques Rocky Harbour Sagona Island St. Anthony Airport St. John's Int'l Airport St. Lawrence Stephenville Airport Twillingate Winterland Wreckhouse Cartwright Airport Mary's Harbour Grates Cove Pool's Island Marticot Island Long Pond Îles de la Madeleine Airport
Legend: buoyBuoy land stationLand Station